sensor_id;sensor_type;location;lat;lon;timestamp;pressure;altitude;pressure_sealevel;temperature;humidity
73455;BME280;61690;51.824;6.306;2023-04-02T12:50:18;102326.78;;;17.99;47.13
73455;BME280;61690;51.824;6.306;2023-04-02T12:52:49;102320.16;;;18.11;46.86
73455;BME280;61690;51.824;6.306;2023-04-02T12:55:18;102334.72;;;18.20;47.88
73455;BME280;61690;51.824;6.306;2023-04-02T12:57:44;102327.63;;;18.22;47.57
73455;BME280;61690;51.824;6.306;2023-04-02T13:02:50;102337.34;;;18.20;46.91
73455;BME280;61690;51.824;6.306;2023-04-02T13:05:38;102341.56;;;18.24;47.04
73455;BME280;61690;51.824;6.306;2023-04-02T13:08:15;102341.53;;;18.26;46.86
73455;BME280;61690;51.824;6.306;2023-04-02T13:10:42;102336.91;;;18.31;46.43
73455;BME280;61690;51.824;6.306;2023-04-02T13:13:16;102340.38;;;18.31;46.42
73455;BME280;61690;51.824;6.306;2023-04-02T13:15:44;102339.38;;;18.35;46.33
73455;BME280;61690;51.824;6.306;2023-04-02T13:18:21;102339.28;;;18.37;46.54
73455;BME280;61690;51.824;6.306;2023-04-02T13:23:42;102327.06;;;18.56;45.73
73455;BME280;61690;51.824;6.306;2023-04-02T13:26:27;102330.28;;;18.63;45.79
73455;BME280;61690;51.824;6.306;2023-04-02T13:31:22;102331.78;;;18.69;45.76
73455;BME280;61690;51.824;6.306;2023-04-02T13:33:48;102343.47;;;18.63;45.67
73455;BME280;61690;51.824;6.306;2023-04-02T13:36:14;102346.41;;;18.55;45.76
73455;BME280;61690;51.824;6.306;2023-04-02T13:38:40;102342.25;;;18.50;45.74
73455;BME280;61690;51.824;6.306;2023-04-02T13:41:31;102351.09;;;18.49;45.79
73455;BME280;61690;51.824;6.306;2023-04-02T13:43:57;102349.09;;;18.54;45.58
73455;BME280;61690;51.824;6.306;2023-04-02T13:46:29;102350.00;;;18.54;45.68
73455;BME280;61690;51.824;6.306;2023-04-02T13:48:55;102344.00;;;18.51;45.65
73455;BME280;61690;51.824;6.306;2023-04-02T13:51:23;102354.75;;;18.45;45.79
73455;BME280;61690;51.824;6.306;2023-04-02T13:53:56;102344.38;;;18.41;45.71
73455;BME280;61690;51.824;6.306;2023-04-02T13:56:22;102362.75;;;18.43;45.80
73455;BME280;61690;51.824;6.306;2023-04-02T13:58:48;102358.72;;;18.34;46.23
73455;BME280;61690;51.824;6.306;2023-04-02T14:01:15;102356.75;;;18.39;46.35
73455;BME280;61690;51.824;6.306;2023-04-02T14:03:41;102364.91;;;18.33;46.40
73455;BME280;61690;51.824;6.306;2023-04-02T14:06:15;102355.41;;;18.29;46.29
73455;BME280;61690;51.824;6.306;2023-04-02T14:09:17;102362.38;;;18.30;46.26
73455;BME280;61690;51.824;6.306;2023-04-02T14:17:26;102356.91;;;18.14;46.50
73455;BME280;61690;51.824;6.306;2023-04-02T14:20:07;102363.53;;;18.02;53.64
73455;BME280;61690;51.824;6.306;2023-04-02T14:25:43;102372.06;;;18.30;55.10
73455;BME280;61690;51.824;6.306;2023-04-02T14:28:46;102374.56;;;18.33;54.48
73455;BME280;61690;51.824;6.306;2023-04-02T14:32:08;102378.13;;;18.32;54.26
73455;BME280;61690;51.824;6.306;2023-04-02T14:40:42;102368.50;;;18.31;52.17
73455;BME280;61690;51.824;6.306;2023-04-02T14:43:19;102382.00;;;18.23;52.73
73455;BME280;61690;51.824;6.306;2023-04-02T14:46:03;102387.75;;;18.11;53.02
73455;BME280;61690;51.824;6.306;2023-04-02T14:48:32;102386.03;;;18.10;52.72
73455;BME280;61690;51.824;6.306;2023-04-02T14:53:57;102392.78;;;18.17;52.09
73455;BME280;61690;51.824;6.306;2023-04-02T14:56:24;102393.56;;;18.19;52.13
73455;BME280;61690;51.824;6.306;2023-04-02T14:59:14;102399.56;;;18.22;51.58
73455;BME280;61690;51.824;6.306;2023-04-02T15:01:44;102402.91;;;18.28;51.60
73455;BME280;61690;51.824;6.306;2023-04-02T15:04:30;102403.75;;;18.28;51.58
73455;BME280;61690;51.824;6.306;2023-04-02T15:07:10;102401.16;;;18.27;51.77
73455;BME280;61690;51.824;6.306;2023-04-02T15:09:41;102408.28;;;18.02;52.23
73455;BME280;61690;51.824;6.306;2023-04-02T15:12:16;102402.47;;;17.93;52.13
73455;BME280;61690;51.824;6.306;2023-04-02T15:14:49;102397.44;;;18.10;52.20
73455;BME280;61690;51.824;6.306;2023-04-02T15:17:19;102407.03;;;18.55;51.46
73455;BME280;61690;51.824;6.306;2023-04-02T15:19:45;102407.28;;;18.92;50.72
73455;BME280;61690;51.824;6.306;2023-04-02T15:22:36;102410.94;;;18.67;50.72
73455;BME280;61690;51.824;6.306;2023-04-02T15:25:28;102411.44;;;18.55;50.92
73455;BME280;61690;51.824;6.306;2023-04-02T15:30:53;102425.69;;;18.71;57.28
73455;BME280;61690;51.824;6.306;2023-04-02T15:38:48;102423.88;;;18.51;50.53
73455;BME280;61690;51.824;6.306;2023-04-02T15:41:24;102422.03;;;18.53;50.08
73455;BME280;61690;51.824;6.306;2023-04-02T15:47:15;102433.69;;;18.48;50.31
73455;BME280;61690;51.824;6.306;2023-04-02T15:50:06;102441.78;;;18.43;50.50
73455;BME280;61690;51.824;6.306;2023-04-02T16:01:39;102443.00;;;18.34;50.12
73455;BME280;61690;51.824;6.306;2023-04-02T16:09:47;102439.63;;;18.31;50.28
73455;BME280;61690;51.824;6.306;2023-04-02T16:12:25;102444.97;;;18.29;50.29
73455;BME280;61690;51.824;6.306;2023-04-02T16:14:58;102443.31;;;18.27;50.08
73455;BME280;61690;51.824;6.306;2023-04-02T16:17:35;102454.78;;;18.26;49.81
73455;BME280;61690;51.824;6.306;2023-04-02T16:22:53;102470.63;;;18.24;50.18
73455;BME280;61690;51.824;6.306;2023-04-02T16:25:22;102472.41;;;18.23;50.10
73455;BME280;61690;51.824;6.306;2023-04-02T16:28:14;102475.97;;;18.22;50.00
73455;BME280;61690;51.824;6.306;2023-04-02T16:34:05;102479.59;;;18.20;49.77
73455;BME280;61690;51.824;6.306;2023-04-02T16:44:53;102492.97;;;18.14;49.55
73455;BME280;61690;51.824;6.306;2023-04-02T16:48:12;102493.94;;;18.11;49.74
73455;BME280;61690;51.824;6.306;2023-04-02T16:51:17;102501.91;;;18.10;49.41
73455;BME280;61690;51.824;6.306;2023-04-02T16:56:59;102509.69;;;18.13;49.42
73455;BME280;61690;51.824;6.306;2023-04-02T17:00:00;102522.72;;;18.16;49.34
73455;BME280;61690;51.824;6.306;2023-04-02T17:02:49;102514.78;;;18.17;49.25
73455;BME280;61690;51.824;6.306;2023-04-02T17:05:30;102523.47;;;18.19;48.97
73455;BME280;61690;51.824;6.306;2023-04-02T17:10:32;102528.63;;;18.22;49.09
73455;BME280;61690;51.824;6.306;2023-04-02T17:13:18;102532.91;;;18.25;48.93
73455;BME280;61690;51.824;6.306;2023-04-02T17:15:59;102545.09;;;18.51;48.57
73455;BME280;61690;51.824;6.306;2023-04-02T17:18:26;102540.88;;;18.47;48.40
73455;BME280;61690;51.824;6.306;2023-04-02T17:20:53;102543.50;;;18.47;48.67
73455;BME280;61690;51.824;6.306;2023-04-02T17:23:22;102546.50;;;18.38;48.87
73455;BME280;61690;51.824;6.306;2023-04-02T17:25:52;102550.22;;;18.32;49.21
73455;BME280;61690;51.824;6.306;2023-04-02T17:28:25;102547.03;;;18.24;49.20
73455;BME280;61690;51.824;6.306;2023-04-02T17:31:00;102553.06;;;18.50;49.43
73455;BME280;61690;51.824;6.306;2023-04-02T17:33:26;102558.28;;;18.51;49.87
73455;BME280;61690;51.824;6.306;2023-04-02T17:44:47;102583.31;;;18.39;49.66
73455;BME280;61690;51.824;6.306;2023-04-02T17:47:20;102575.53;;;18.36;49.75
73455;BME280;61690;51.824;6.306;2023-04-02T17:52:57;102579.59;;;18.45;50.45
73455;BME280;61690;51.824;6.306;2023-04-02T18:09:36;102602.81;;;18.35;49.49
73455;BME280;61690;51.824;6.306;2023-04-02T18:12:17;102601.13;;;18.33;49.36
73455;BME280;61690;51.824;6.306;2023-04-02T18:14:51;102609.91;;;18.33;49.47
73455;BME280;61690;51.824;6.306;2023-04-02T18:17:33;102616.13;;;18.31;49.14
73455;BME280;61690;51.824;6.306;2023-04-02T18:23:12;102620.66;;;18.27;49.38
73455;BME280;61690;51.824;6.306;2023-04-02T18:26:11;102622.47;;;18.25;49.48
73455;BME280;61690;51.824;6.306;2023-04-02T18:34:33;102631.41;;;18.21;49.43
73455;BME280;61690;51.824;6.306;2023-04-02T18:37:16;102636.69;;;18.21;49.79
73455;BME280;61690;51.824;6.306;2023-04-02T18:39:53;102636.69;;;18.21;49.76
73455;BME280;61690;51.824;6.306;2023-04-02T18:51:18;102656.16;;;18.17;49.71
73455;BME280;61690;51.824;6.306;2023-04-02T18:54:05;102654.31;;;18.19;49.23
73455;BME280;61690;51.824;6.306;2023-04-02T18:56:39;102662.16;;;18.20;49.43
73455;BME280;61690;51.824;6.306;2023-04-02T19:01:39;102664.75;;;18.22;49.05
73455;BME280;61690;51.824;6.306;2023-04-02T19:04:14;102670.03;;;18.22;48.96
73455;BME280;61690;51.824;6.306;2023-04-02T19:06:50;102670.03;;;18.22;48.93
73455;BME280;61690;51.824;6.306;2023-04-02T19:09:23;102675.28;;;18.22;48.79
73455;BME280;61690;51.824;6.306;2023-04-02T19:11:51;102678.81;;;18.21;48.75
73455;BME280;61690;51.824;6.306;2023-04-02T19:14:20;102689.38;;;18.21;48.96
73455;BME280;61690;51.824;6.306;2023-04-02T19:20:19;102697.41;;;18.18;48.90
73455;BME280;61690;51.824;6.306;2023-04-02T19:26:07;102696.69;;;18.13;48.61
73455;BME280;61690;51.824;6.306;2023-04-02T19:28:57;102695.06;;;18.09;48.58
73455;BME280;61690;51.824;6.306;2023-04-02T19:34:10;102704.84;;;18.05;48.68
73455;BME280;61690;51.824;6.306;2023-04-02T19:36:53;102703.25;;;18.01;48.62
73455;BME280;61690;51.824;6.306;2023-04-02T19:44:50;102707.78;;;17.96;48.86
73455;BME280;61690;51.824;6.306;2023-04-02T19:47:17;102714.88;;;17.94;48.97
73455;BME280;61690;51.824;6.306;2023-04-02T19:49:43;102717.56;;;17.92;48.34
73455;BME280;61690;51.824;6.306;2023-04-02T19:52:09;102713.22;;;17.91;48.81
73455;BME280;61690;51.824;6.306;2023-04-02T19:54:34;102723.00;;;17.88;48.52
73455;BME280;61690;51.824;6.306;2023-04-02T19:57:01;102728.22;;;17.89;48.76
73455;BME280;61690;51.824;6.306;2023-04-02T19:59:26;102740.63;;;17.86;48.83
73455;BME280;61690;51.824;6.306;2023-04-02T20:01:51;102726.59;;;17.83;48.84
73455;BME280;61690;51.824;6.306;2023-04-02T20:04:17;102735.41;;;17.84;48.39
73455;BME280;61690;51.824;6.306;2023-04-02T20:06:44;102736.25;;;17.83;48.81
73455;BME280;61690;51.824;6.306;2023-04-02T20:09:09;102744.22;;;17.81;49.11
73455;BME280;61690;51.824;6.306;2023-04-02T20:11:36;102739.91;;;17.79;49.21
73455;BME280;61690;51.824;6.306;2023-04-02T20:14:02;102739.91;;;17.79;48.90
73455;BME280;61690;51.824;6.306;2023-04-02T20:16:28;102741.72;;;17.77;49.19
73455;BME280;61690;51.824;6.306;2023-04-02T20:18:54;102737.41;;;17.76;49.12
73455;BME280;61690;51.824;6.306;2023-04-02T20:21:21;102742.75;;;17.73;49.08
73455;BME280;61690;51.824;6.306;2023-04-02T20:23:46;102746.28;;;17.72;49.03
73455;BME280;61690;51.824;6.306;2023-04-02T20:26:13;102749.03;;;17.69;49.39
73455;BME280;61690;51.824;6.306;2023-04-02T20:28:38;102750.00;;;17.66;49.20
73455;BME280;61690;51.824;6.306;2023-04-02T20:31:13;102757.03;;;17.64;49.17
73455;BME280;61690;51.824;6.306;2023-04-02T20:33:41;102757.03;;;17.64;49.00
73455;BME280;61690;51.824;6.306;2023-04-02T20:36:11;102760.66;;;17.61;49.23
73455;BME280;61690;51.824;6.306;2023-04-02T20:38:37;102761.63;;;17.59;49.35
73455;BME280;61690;51.824;6.306;2023-04-02T20:41:04;102761.66;;;17.57;49.39
73455;BME280;61690;51.824;6.306;2023-04-02T20:43:32;102763.47;;;17.55;49.00
73455;BME280;61690;51.824;6.306;2023-04-02T20:45:59;102766.16;;;17.54;49.08
73455;BME280;61690;51.824;6.306;2023-04-02T20:48:30;102772.34;;;17.53;48.88
73455;BME280;61690;51.824;6.306;2023-04-02T20:50:58;102781.16;;;17.50;49.11
73455;BME280;61690;51.824;6.306;2023-04-02T20:53:24;102777.72;;;17.48;49.13
73455;BME280;61690;51.824;6.306;2023-04-02T20:55:50;102786.53;;;17.47;49.14
73455;BME280;61690;51.824;6.306;2023-04-02T20:58:17;102781.38;;;17.44;49.27
73455;BME280;61690;51.824;6.306;2023-04-02T21:00:44;102787.50;;;17.43;49.47
73455;BME280;61690;51.824;6.306;2023-04-02T21:03:10;102796.38;;;17.40;49.18
73455;BME280;61690;51.824;6.306;2023-04-02T21:05:47;102799.97;;;17.38;49.36
73455;BME280;61690;51.824;6.306;2023-04-02T21:08:13;102800.00;;;17.36;49.21
73455;BME280;61690;51.824;6.306;2023-04-02T21:10:39;102800.91;;;17.35;49.01
73455;BME280;61690;51.824;6.306;2023-04-02T21:13:05;102800.97;;;17.34;49.18
73455;BME280;61690;51.824;6.306;2023-04-02T21:15:30;102803.69;;;17.31;49.21
73455;BME280;61690;51.824;6.306;2023-04-02T21:17:57;102809.88;;;17.30;49.09
73455;BME280;61690;51.824;6.306;2023-04-02T21:20:22;102808.13;;;17.29;49.21
73455;BME280;61690;51.824;6.306;2023-04-02T21:22:50;102809.97;;;17.25;49.28
73455;BME280;61690;51.824;6.306;2023-04-02T21:25:15;102810.94;;;17.22;49.31
73455;BME280;61690;51.824;6.306;2023-04-02T21:27:41;102810.13;;;17.20;48.99
73455;BME280;61690;51.824;6.306;2023-04-02T21:30:07;102811.84;;;17.21;49.24
73455;BME280;61690;51.824;6.306;2023-04-02T21:32:32;102811.94;;;17.18;49.53
73455;BME280;61690;51.824;6.306;2023-04-02T21:34:57;102811.13;;;17.16;49.37
73455;BME280;61690;51.824;6.306;2023-04-02T21:37:23;102814.69;;;17.14;49.54
73455;BME280;61690;51.824;6.306;2023-04-02T21:39:50;102821.72;;;17.13;49.25
73455;BME280;61690;51.824;6.306;2023-04-02T21:42:16;102813.91;;;17.10;49.35
73455;BME280;61690;51.824;6.306;2023-04-02T21:44:44;102819.16;;;17.10;49.65
73455;BME280;61690;51.824;6.306;2023-04-02T21:47:09;102815.72;;;17.08;49.34
73455;BME280;61690;51.824;6.306;2023-04-02T21:49:35;102828.97;;;17.05;49.72
73455;BME280;61690;51.824;6.306;2023-04-02T21:52:01;102829.00;;;17.03;49.76
73455;BME280;61690;51.824;6.306;2023-04-02T21:54:28;102829.91;;;17.02;49.79
73455;BME280;61690;51.824;6.306;2023-04-02T21:56:55;102839.59;;;17.00;49.40
73455;BME280;61690;51.824;6.306;2023-04-02T21:59:21;102828.28;;;16.98;49.33
73455;BME280;61690;51.824;6.306;2023-04-02T22:01:48;102837.06;;;16.97;49.63
73455;BME280;61690;51.824;6.306;2023-04-02T22:04:16;102841.44;;;16.97;49.58
73455;BME280;61690;51.824;6.306;2023-04-02T22:06:43;102840.63;;;16.95;49.53
73455;BME280;61690;51.824;6.306;2023-04-02T22:09:13;102830.19;;;16.93;49.73
73455;BME280;61690;51.824;6.306;2023-04-02T22:11:42;102842.47;;;16.91;49.57
73455;BME280;61690;51.824;6.306;2023-04-02T22:14:07;102837.28;;;16.90;49.82
73455;BME280;61690;51.824;6.306;2023-04-02T22:16:34;102837.28;;;16.90;49.86
73455;BME280;61690;51.824;6.306;2023-04-02T22:19:00;102844.34;;;16.88;49.79
73455;BME280;61690;51.824;6.306;2023-04-02T22:21:29;102843.50;;;16.85;49.92
73455;BME280;61690;51.824;6.306;2023-04-02T22:23:54;102838.31;;;16.84;49.91
73455;BME280;61690;51.824;6.306;2023-04-02T22:26:22;102840.13;;;16.82;49.78
73455;BME280;61690;51.824;6.306;2023-04-02T22:28:47;102847.09;;;16.81;49.59
73455;BME280;61690;51.824;6.306;2023-04-02T22:31:20;102851.53;;;16.79;49.94
73455;BME280;61690;51.824;6.306;2023-04-02T22:33:46;102848.09;;;16.77;49.74
73455;BME280;61690;51.824;6.306;2023-04-02T22:36:13;102848.09;;;16.77;49.80
73455;BME280;61690;51.824;6.306;2023-04-02T22:38:39;102843.78;;;16.75;49.76
73455;BME280;61690;51.824;6.306;2023-04-02T22:41:17;102853.50;;;16.71;49.73
73455;BME280;61690;51.824;6.306;2023-04-02T22:43:44;102850.03;;;16.71;50.08
73455;BME280;61690;51.824;6.306;2023-04-02T22:46:11;102856.16;;;16.70;50.11
73455;BME280;61690;51.824;6.306;2023-04-02T22:48:37;102859.72;;;16.69;49.79
73455;BME280;61690;51.824;6.306;2023-04-02T22:51:05;102858.94;;;16.65;49.98
73455;BME280;61690;51.824;6.306;2023-04-02T22:53:31;102858.97;;;16.63;50.02
73455;BME280;61690;51.824;6.306;2023-04-02T22:56:12;102858.06;;;16.64;49.70
73455;BME280;61690;51.824;6.306;2023-04-02T22:58:38;102869.50;;;16.62;49.78
73455;BME280;61690;51.824;6.306;2023-04-02T23:01:07;102866.91;;;16.60;49.78
73455;BME280;61690;51.824;6.306;2023-04-02T23:03:33;102866.97;;;16.59;50.04
73455;BME280;61690;51.824;6.306;2023-04-02T23:06:08;102871.41;;;16.57;49.93
73455;BME280;61690;51.824;6.306;2023-04-02T23:08:35;102867.03;;;16.56;49.66
73455;BME280;61690;51.824;6.306;2023-04-02T23:11:06;102873.25;;;16.53;49.85
73455;BME280;61690;51.824;6.306;2023-04-02T23:13:32;102875.88;;;16.53;50.39
73455;BME280;61690;51.824;6.306;2023-04-02T23:16:02;102873.28;;;16.52;50.21
73455;BME280;61690;51.824;6.306;2023-04-02T23:18:30;102869.81;;;16.50;50.25
73455;BME280;61690;51.824;6.306;2023-04-02T23:20:56;102871.63;;;16.48;49.87
73455;BME280;61690;51.824;6.306;2023-04-02T23:23:23;102876.00;;;16.47;50.20
73455;BME280;61690;51.824;6.306;2023-04-02T23:25:48;102878.69;;;16.45;50.25
73455;BME280;61690;51.824;6.306;2023-04-02T23:28:14;102876.06;;;16.45;49.86
73455;BME280;61690;51.824;6.306;2023-04-02T23:30:40;102875.25;;;16.43;50.25
73455;BME280;61690;51.824;6.306;2023-04-02T23:33:08;102877.00;;;16.41;50.06
73455;BME280;61690;51.824;6.306;2023-04-02T23:35:33;102879.69;;;16.40;50.31
73455;BME280;61690;51.824;6.306;2023-04-02T23:37:59;102881.44;;;16.39;50.26
73455;BME280;61690;51.824;6.306;2023-04-02T23:40:25;102881.50;;;16.38;50.30
73455;BME280;61690;51.824;6.306;2023-04-02T23:42:51;102884.16;;;16.36;50.30
73455;BME280;61690;51.824;6.306;2023-04-02T23:45:16;102885.88;;;16.37;50.29
73455;BME280;61690;51.824;6.306;2023-04-02T23:47:41;102887.72;;;16.34;49.98
73455;BME280;61690;51.824;6.306;2023-04-02T23:50:07;102889.47;;;16.33;49.92
73455;BME280;61690;51.824;6.306;2023-04-02T23:52:32;102898.28;;;16.32;50.25
73455;BME280;61690;51.824;6.306;2023-04-02T23:54:57;102894.81;;;16.30;50.76
73455;BME280;61690;51.824;6.306;2023-04-02T23:57:23;102891.38;;;16.28;50.08
73455;BME280;61690;51.824;6.306;2023-04-02T23:59:48;102889.63;;;16.27;50.19
